sensor_id;sensor_type;location;lat;lon;timestamp;temperature;humidity
16578;DHT22;8401;52.528;13.340;2022-11-20T00:01:41;1.10;99.90
16578;DHT22;8401;52.528;13.340;2022-11-20T00:04:07;1.10;99.90
16578;DHT22;8401;52.528;13.340;2022-11-20T00:06:33;1.10;99.90
16578;DHT22;8401;52.528;13.340;2022-11-20T00:09:00;1.10;99.90
16578;DHT22;8401;52.528;13.340;2022-11-20T00:11:30;1.00;99.90
16578;DHT22;8401;52.528;13.340;2022-11-20T00:13:58;1.10;99.90
16578;DHT22;8401;52.528;13.340;2022-11-20T00:16:26;1.10;99.90
16578;DHT22;8401;52.528;13.340;2022-11-20T00:18:52;1.10;99.90
16578;DHT22;8401;52.528;13.340;2022-11-20T00:21:23;1.10;99.90
16578;DHT22;8401;52.528;13.340;2022-11-20T00:23:50;1.10;99.90
16578;DHT22;8401;52.528;13.340;2022-11-20T00:26:18;1.10;99.90
16578;DHT22;8401;52.528;13.340;2022-11-20T00:28:49;1.00;99.90
16578;DHT22;8401;52.528;13.340;2022-11-20T00:31:16;1.10;99.90
16578;DHT22;8401;52.528;13.340;2022-11-20T00:33:43;1.10;99.90
16578;DHT22;8401;52.528;13.340;2022-11-20T00:36:17;1.10;99.90
16578;DHT22;8401;52.528;13.340;2022-11-20T00:38:44;1.10;99.90
16578;DHT22;8401;52.528;13.340;2022-11-20T00:41:12;1.20;99.90
16578;DHT22;8401;52.528;13.340;2022-11-20T00:43:38;1.10;99.90
16578;DHT22;8401;52.528;13.340;2022-11-20T00:46:07;1.20;99.90
16578;DHT22;8401;52.528;13.340;2022-11-20T00:48:33;1.20;99.90
16578;DHT22;8401;52.528;13.340;2022-11-20T00:50:59;1.20;99.90
16578;DHT22;8401;52.528;13.340;2022-11-20T00:53:25;1.20;99.90
16578;DHT22;8401;52.528;13.340;2022-11-20T00:56:01;1.20;99.90
16578;DHT22;8401;52.528;13.340;2022-11-20T00:58:35;1.20;99.90
16578;DHT22;8401;52.528;13.340;2022-11-20T01:01:09;1.20;99.90
16578;DHT22;8401;52.528;13.340;2022-11-20T01:03:40;1.20;99.90
16578;DHT22;8401;52.528;13.340;2022-11-20T01:06:14;1.20;99.90
16578;DHT22;8401;52.528;13.340;2022-11-20T01:08:40;1.20;99.90
16578;DHT22;8401;52.528;13.340;2022-11-20T01:11:11;1.20;99.90
16578;DHT22;8401;52.528;13.340;2022-11-20T01:13:37;1.20;99.90
16578;DHT22;8401;52.528;13.340;2022-11-20T01:16:12;1.20;99.90
16578;DHT22;8401;52.528;13.340;2022-11-20T01:18:40;1.10;99.90
16578;DHT22;8401;52.528;13.340;2022-11-20T01:21:12;1.10;99.90
16578;DHT22;8401;52.528;13.340;2022-11-20T01:23:39;1.20;99.90
16578;DHT22;8401;52.528;13.340;2022-11-20T01:26:11;1.10;99.90
16578;DHT22;8401;52.528;13.340;2022-11-20T01:28:37;1.10;99.90
16578;DHT22;8401;52.528;13.340;2022-11-20T01:31:14;1.10;99.90
16578;DHT22;8401;52.528;13.340;2022-11-20T01:33:41;1.10;99.90
16578;DHT22;8401;52.528;13.340;2022-11-20T01:36:07;1.10;99.90
16578;DHT22;8401;52.528;13.340;2022-11-20T01:38:33;1.20;99.90
16578;DHT22;8401;52.528;13.340;2022-11-20T01:40:59;1.20;99.90
16578;DHT22;8401;52.528;13.340;2022-11-20T01:43:25;1.20;99.90
16578;DHT22;8401;52.528;13.340;2022-11-20T01:48:33;1.20;99.90
16578;DHT22;8401;52.528;13.340;2022-11-20T01:51:00;1.20;99.90
16578;DHT22;8401;52.528;13.340;2022-11-20T01:53:31;1.20;99.90
16578;DHT22;8401;52.528;13.340;2022-11-20T01:55:59;1.20;99.90
16578;DHT22;8401;52.528;13.340;2022-11-20T01:58:32;1.20;99.90
16578;DHT22;8401;52.528;13.340;2022-11-20T02:00:58;1.20;99.90
16578;DHT22;8401;52.528;13.340;2022-11-20T02:03:24;1.20;99.90
16578;DHT22;8401;52.528;13.340;2022-11-20T02:08:20;1.10;99.90
16578;DHT22;8401;52.528;13.340;2022-11-20T02:10:47;1.00;99.90
16578;DHT22;8401;52.528;13.340;2022-11-20T02:13:12;1.10;99.90
16578;DHT22;8401;52.528;13.340;2022-11-20T02:16:00;1.10;99.90
16578;DHT22;8401;52.528;13.340;2022-11-20T02:18:26;1.10;99.90
16578;DHT22;8401;52.528;13.340;2022-11-20T02:21:01;1.10;99.90
16578;DHT22;8401;52.528;13.340;2022-11-20T02:23:56;1.10;99.90
16578;DHT22;8401;52.528;13.340;2022-11-20T02:26:23;1.10;99.90
16578;DHT22;8401;52.528;13.340;2022-11-20T02:28:49;1.10;99.90
16578;DHT22;8401;52.528;13.340;2022-11-20T02:31:15;1.00;99.90
16578;DHT22;8401;52.528;13.340;2022-11-20T02:33:41;1.10;99.90
16578;DHT22;8401;52.528;13.340;2022-11-20T02:36:09;1.00;99.90
16578;DHT22;8401;52.528;13.340;2022-11-20T02:38:36;0.90;99.90
16578;DHT22;8401;52.528;13.340;2022-11-20T02:41:02;0.90;99.90
16578;DHT22;8401;52.528;13.340;2022-11-20T02:43:28;0.90;99.90
16578;DHT22;8401;52.528;13.340;2022-11-20T02:45:53;0.90;99.90
16578;DHT22;8401;52.528;13.340;2022-11-20T02:48:19;1.00;99.90
16578;DHT22;8401;52.528;13.340;2022-11-20T02:50:44;1.00;99.90
16578;DHT22;8401;52.528;13.340;2022-11-20T02:53:10;1.00;99.90
16578;DHT22;8401;52.528;13.340;2022-11-20T02:55:36;1.00;99.90
16578;DHT22;8401;52.528;13.340;2022-11-20T02:58:02;1.00;99.90
16578;DHT22;8401;52.528;13.340;2022-11-20T03:00:27;1.00;99.90
16578;DHT22;8401;52.528;13.340;2022-11-20T03:02:53;1.00;99.90
16578;DHT22;8401;52.528;13.340;2022-11-20T03:05:19;1.00;99.90
16578;DHT22;8401;52.528;13.340;2022-11-20T03:07:44;1.00;99.90
16578;DHT22;8401;52.528;13.340;2022-11-20T03:10:10;1.00;99.90
16578;DHT22;8401;52.528;13.340;2022-11-20T03:12:35;1.00;99.90
16578;DHT22;8401;52.528;13.340;2022-11-20T03:15:01;0.90;99.90
16578;DHT22;8401;52.528;13.340;2022-11-20T03:17:27;0.90;99.90
16578;DHT22;8401;52.528;13.340;2022-11-20T03:19:52;0.90;99.90
16578;DHT22;8401;52.528;13.340;2022-11-20T03:22:18;1.00;99.90
16578;DHT22;8401;52.528;13.340;2022-11-20T03:24:44;1.00;99.90
16578;DHT22;8401;52.528;13.340;2022-11-20T03:27:09;1.00;99.90
16578;DHT22;8401;52.528;13.340;2022-11-20T03:29:35;1.00;99.90
16578;DHT22;8401;52.528;13.340;2022-11-20T03:32:01;1.00;99.90
16578;DHT22;8401;52.528;13.340;2022-11-20T03:34:26;1.00;99.90
16578;DHT22;8401;52.528;13.340;2022-11-20T03:36:52;1.10;99.90
16578;DHT22;8401;52.528;13.340;2022-11-20T03:39:17;1.00;99.90
16578;DHT22;8401;52.528;13.340;2022-11-20T03:41:43;1.00;99.90
16578;DHT22;8401;52.528;13.340;2022-11-20T03:44:10;1.00;99.90
16578;DHT22;8401;52.528;13.340;2022-11-20T03:46:36;1.10;99.90
16578;DHT22;8401;52.528;13.340;2022-11-20T03:49:03;1.10;99.90
16578;DHT22;8401;52.528;13.340;2022-11-20T03:51:31;1.10;99.90
16578;DHT22;8401;52.528;13.340;2022-11-20T03:53:58;1.00;99.90
16578;DHT22;8401;52.528;13.340;2022-11-20T03:56:29;1.00;99.90
16578;DHT22;8401;52.528;13.340;2022-11-20T03:58:56;1.10;99.90
16578;DHT22;8401;52.528;13.340;2022-11-20T04:01:27;1.00;99.90
16578;DHT22;8401;52.528;13.340;2022-11-20T04:03:54;1.00;99.90
16578;DHT22;8401;52.528;13.340;2022-11-20T04:06:23;0.90;99.90
16578;DHT22;8401;52.528;13.340;2022-11-20T04:08:49;0.90;99.90
16578;DHT22;8401;52.528;13.340;2022-11-20T04:11:20;1.00;99.90
16578;DHT22;8401;52.528;13.340;2022-11-20T04:13:49;1.00;99.90
16578;DHT22;8401;52.528;13.340;2022-11-20T04:16:16;1.00;99.90
16578;DHT22;8401;52.528;13.340;2022-11-20T04:18:42;1.00;99.90
16578;DHT22;8401;52.528;13.340;2022-11-20T04:21:09;0.90;99.90
16578;DHT22;8401;52.528;13.340;2022-11-20T04:23:35;0.90;99.90
16578;DHT22;8401;52.528;13.340;2022-11-20T04:26:09;0.80;99.90
16578;DHT22;8401;52.528;13.340;2022-11-20T04:28:36;0.90;99.90
16578;DHT22;8401;52.528;13.340;2022-11-20T04:31:04;0.90;99.90
16578;DHT22;8401;52.528;13.340;2022-11-20T04:33:30;0.90;99.90
16578;DHT22;8401;52.528;13.340;2022-11-20T04:36:00;0.90;99.90
16578;DHT22;8401;52.528;13.340;2022-11-20T04:38:26;0.90;99.90
16578;DHT22;8401;52.528;13.340;2022-11-20T04:41:02;1.00;99.90
16578;DHT22;8401;52.528;13.340;2022-11-20T04:43:29;1.00;99.90
16578;DHT22;8401;52.528;13.340;2022-11-20T04:45:56;1.10;99.90
16578;DHT22;8401;52.528;13.340;2022-11-20T04:48:22;1.10;99.90
16578;DHT22;8401;52.528;13.340;2022-11-20T04:50:48;1.10;99.90
16578;DHT22;8401;52.528;13.340;2022-11-20T04:53:14;1.10;99.90
16578;DHT22;8401;52.528;13.340;2022-11-20T04:55:39;1.00;99.90
16578;DHT22;8401;52.528;13.340;2022-11-20T04:58:05;1.10;99.90
16578;DHT22;8401;52.528;13.340;2022-11-20T05:00:31;1.10;99.90
16578;DHT22;8401;52.528;13.340;2022-11-20T05:02:57;1.20;99.90
16578;DHT22;8401;52.528;13.340;2022-11-20T05:05:22;1.10;99.90
16578;DHT22;8401;52.528;13.340;2022-11-20T05:07:48;1.00;99.90
16578;DHT22;8401;52.528;13.340;2022-11-20T05:10:14;1.10;99.90
16578;DHT22;8401;52.528;13.340;2022-11-20T05:12:39;1.00;99.90
16578;DHT22;8401;52.528;13.340;2022-11-20T05:15:05;1.00;99.90
16578;DHT22;8401;52.528;13.340;2022-11-20T05:17:31;1.10;99.90
16578;DHT22;8401;52.528;13.340;2022-11-20T05:19:57;1.20;99.90
16578;DHT22;8401;52.528;13.340;2022-11-20T05:22:22;1.10;99.90
16578;DHT22;8401;52.528;13.340;2022-11-20T05:24:48;1.10;99.90
16578;DHT22;8401;52.528;13.340;2022-11-20T05:27:14;1.00;99.90
16578;DHT22;8401;52.528;13.340;2022-11-20T05:29:39;1.00;99.90
16578;DHT22;8401;52.528;13.340;2022-11-20T05:32:05;1.10;99.90
16578;DHT22;8401;52.528;13.340;2022-11-20T05:34:32;1.10;99.90
16578;DHT22;8401;52.528;13.340;2022-11-20T05:36:58;1.10;99.90
16578;DHT22;8401;52.528;13.340;2022-11-20T05:39:24;1.10;99.90
16578;DHT22;8401;52.528;13.340;2022-11-20T05:41:49;1.10;99.90
16578;DHT22;8401;52.528;13.340;2022-11-20T05:44:35;1.20;99.90
16578;DHT22;8401;52.528;13.340;2022-11-20T05:47:00;1.20;99.90
16578;DHT22;8401;52.528;13.340;2022-11-20T05:49:26;1.20;99.90
16578;DHT22;8401;52.528;13.340;2022-11-20T05:51:51;1.10;99.90
16578;DHT22;8401;52.528;13.340;2022-11-20T05:54:17;1.10;99.90
16578;DHT22;8401;52.528;13.340;2022-11-20T05:56:43;1.10;99.90
16578;DHT22;8401;52.528;13.340;2022-11-20T05:59:08;1.20;99.90
16578;DHT22;8401;52.528;13.340;2022-11-20T06:01:34;1.20;99.90
16578;DHT22;8401;52.528;13.340;2022-11-20T06:04:01;1.20;99.90
16578;DHT22;8401;52.528;13.340;2022-11-20T06:06:27;1.20;99.90
16578;DHT22;8401;52.528;13.340;2022-11-20T06:08:54;1.20;99.90
16578;DHT22;8401;52.528;13.340;2022-11-20T06:11:20;1.30;99.90
16578;DHT22;8401;52.528;13.340;2022-11-20T06:13:46;1.20;99.90
16578;DHT22;8401;52.528;13.340;2022-11-20T06:16:14;1.20;99.90
16578;DHT22;8401;52.528;13.340;2022-11-20T06:18:40;1.20;99.90
16578;DHT22;8401;52.528;13.340;2022-11-20T06:21:07;1.20;99.90
16578;DHT22;8401;52.528;13.340;2022-11-20T06:23:34;1.30;99.90
16578;DHT22;8401;52.528;13.340;2022-11-20T06:26:08;1.30;99.90
16578;DHT22;8401;52.528;13.340;2022-11-20T06:28:35;1.30;99.90
16578;DHT22;8401;52.528;13.340;2022-11-20T06:31:00;1.30;99.90
16578;DHT22;8401;52.528;13.340;2022-11-20T06:33:27;1.30;99.90
16578;DHT22;8401;52.528;13.340;2022-11-20T06:35:56;1.30;99.90
16578;DHT22;8401;52.528;13.340;2022-11-20T06:38:23;1.30;99.90
16578;DHT22;8401;52.528;13.340;2022-11-20T06:40:48;1.30;99.90
16578;DHT22;8401;52.528;13.340;2022-11-20T06:43:14;1.30;99.90
16578;DHT22;8401;52.528;13.340;2022-11-20T06:45:40;1.30;99.90
16578;DHT22;8401;52.528;13.340;2022-11-20T06:48:06;1.40;99.90
16578;DHT22;8401;52.528;13.340;2022-11-20T06:50:31;1.40;99.90
16578;DHT22;8401;52.528;13.340;2022-11-20T06:53:01;1.40;99.90
16578;DHT22;8401;52.528;13.340;2022-11-20T06:55:27;1.50;99.90
16578;DHT22;8401;52.528;13.340;2022-11-20T06:57:53;1.40;99.90
16578;DHT22;8401;52.528;13.340;2022-11-20T07:00:19;1.50;99.90
16578;DHT22;8401;52.528;13.340;2022-11-20T07:02:44;1.30;99.90
16578;DHT22;8401;52.528;13.340;2022-11-20T07:05:10;1.50;99.90
16578;DHT22;8401;52.528;13.340;2022-11-20T07:07:36;1.60;99.90
16578;DHT22;8401;52.528;13.340;2022-11-20T07:10:01;1.40;99.90
16578;DHT22;8401;52.528;13.340;2022-11-20T07:12:27;1.50;99.90
16578;DHT22;8401;52.528;13.340;2022-11-20T07:14:52;1.40;99.90
16578;DHT22;8401;52.528;13.340;2022-11-20T07:17:18;1.30;99.90
16578;DHT22;8401;52.528;13.340;2022-11-20T07:19:44;1.20;99.90
16578;DHT22;8401;52.528;13.340;2022-11-20T07:22:09;1.20;99.90
16578;DHT22;8401;52.528;13.340;2022-11-20T07:24:35;1.30;99.90
16578;DHT22;8401;52.528;13.340;2022-11-20T07:27:00;1.30;99.90
16578;DHT22;8401;52.528;13.340;2022-11-20T07:29:26;1.20;99.90
16578;DHT22;8401;52.528;13.340;2022-11-20T07:31:52;1.20;99.90
16578;DHT22;8401;52.528;13.340;2022-11-20T07:34:17;1.30;99.90
16578;DHT22;8401;52.528;13.340;2022-11-20T07:36:43;1.30;99.90
16578;DHT22;8401;52.528;13.340;2022-11-20T07:39:08;1.20;99.90
16578;DHT22;8401;52.528;13.340;2022-11-20T07:41:34;1.30;99.90
16578;DHT22;8401;52.528;13.340;2022-11-20T07:44:00;1.40;99.90
16578;DHT22;8401;52.528;13.340;2022-11-20T07:46:25;1.30;99.90
16578;DHT22;8401;52.528;13.340;2022-11-20T07:48:51;1.40;99.90
16578;DHT22;8401;52.528;13.340;2022-11-20T07:51:17;1.40;99.90
16578;DHT22;8401;52.528;13.340;2022-11-20T07:53:42;1.70;99.90
16578;DHT22;8401;52.528;13.340;2022-11-20T07:56:08;1.80;99.90
16578;DHT22;8401;52.528;13.340;2022-11-20T07:58:34;1.80;99.90
16578;DHT22;8401;52.528;13.340;2022-11-20T08:01:05;1.70;99.90
16578;DHT22;8401;52.528;13.340;2022-11-20T08:03:31;1.40;99.90
16578;DHT22;8401;52.528;13.340;2022-11-20T08:06:00;1.50;99.90
16578;DHT22;8401;52.528;13.340;2022-11-20T08:08:27;1.50;99.90
16578;DHT22;8401;52.528;13.340;2022-11-20T08:10:53;1.40;99.90
16578;DHT22;8401;52.528;13.340;2022-11-20T08:13:39;1.40;99.90
16578;DHT22;8401;52.528;13.340;2022-11-20T08:16:23;1.20;98.90
16578;DHT22;8401;52.528;13.340;2022-11-20T08:18:48;1.10;99.90
16578;DHT22;8401;52.528;13.340;2022-11-20T08:21:15;1.20;99.90
16578;DHT22;8401;52.528;13.340;2022-11-20T08:23:40;1.10;99.90
16578;DHT22;8401;52.528;13.340;2022-11-20T08:26:06;1.20;99.90
16578;DHT22;8401;52.528;13.340;2022-11-20T08:28:31;1.10;99.90
16578;DHT22;8401;52.528;13.340;2022-11-20T08:30:59;1.10;99.90
16578;DHT22;8401;52.528;13.340;2022-11-20T08:33:24;1.30;99.90
16578;DHT22;8401;52.528;13.340;2022-11-20T08:35:50;1.10;99.90
16578;DHT22;8401;52.528;13.340;2022-11-20T08:38:16;1.30;99.90
16578;DHT22;8401;52.528;13.340;2022-11-20T08:40:41;1.20;99.90
16578;DHT22;8401;52.528;13.340;2022-11-20T08:43:27;1.20;99.90
16578;DHT22;8401;52.528;13.340;2022-11-20T08:45:52;1.20;99.90
16578;DHT22;8401;52.528;13.340;2022-11-20T08:48:18;1.20;99.90
16578;DHT22;8401;52.528;13.340;2022-11-20T08:50:44;1.20;99.90
16578;DHT22;8401;52.528;13.340;2022-11-20T08:53:09;1.10;99.90
16578;DHT22;8401;52.528;13.340;2022-11-20T08:55:35;1.10;99.90
16578;DHT22;8401;52.528;13.340;2022-11-20T08:58:06;1.20;99.90
16578;DHT22;8401;52.528;13.340;2022-11-20T09:00:32;1.20;99.90
16578;DHT22;8401;52.528;13.340;2022-11-20T09:02:58;1.30;99.90
16578;DHT22;8401;52.528;13.340;2022-11-20T09:05:26;1.40;99.90
16578;DHT22;8401;52.528;13.340;2022-11-20T09:07:51;1.30;99.90
16578;DHT22;8401;52.528;13.340;2022-11-20T09:10:17;1.30;99.90
16578;DHT22;8401;52.528;13.340;2022-11-20T09:12:42;1.30;99.90
16578;DHT22;8401;52.528;13.340;2022-11-20T09:15:08;1.30;99.90
16578;DHT22;8401;52.528;13.340;2022-11-20T09:17:34;1.20;99.90
16578;DHT22;8401;52.528;13.340;2022-11-20T09:20:00;1.20;99.90
16578;DHT22;8401;52.528;13.340;2022-11-20T09:22:25;1.20;99.90
16578;DHT22;8401;52.528;13.340;2022-11-20T09:24:51;1.20;99.90
16578;DHT22;8401;52.528;13.340;2022-11-20T09:27:17;1.20;99.90
16578;DHT22;8401;52.528;13.340;2022-11-20T09:29:48;1.20;99.90
16578;DHT22;8401;52.528;13.340;2022-11-20T09:32:14;1.30;99.90
16578;DHT22;8401;52.528;13.340;2022-11-20T09:34:39;1.40;99.90
16578;DHT22;8401;52.528;13.340;2022-11-20T09:37:05;1.40;99.90
16578;DHT22;8401;52.528;13.340;2022-11-20T09:39:31;1.50;99.90
16578;DHT22;8401;52.528;13.340;2022-11-20T09:42:14;1.50;99.90
16578;DHT22;8401;52.528;13.340;2022-11-20T09:45:12;1.60;99.90
16578;DHT22;8401;52.528;13.340;2022-11-20T09:55:49;2.00;95.30
16578;DHT22;8401;52.528;13.340;2022-11-20T10:00:52;2.00;90.00
16578;DHT22;8401;52.528;13.340;2022-11-20T10:03:34;2.00;84.40
16578;DHT22;8401;52.528;13.340;2022-11-20T10:06:02;2.00;81.80
16578;DHT22;8401;52.528;13.340;2022-11-20T10:09:16;2.20;72.20
16578;DHT22;8401;52.528;13.340;2022-11-20T10:11:48;2.20;80.40
16578;DHT22;8401;52.528;13.340;2022-11-20T10:14:26;2.10;67.20
16578;DHT22;8401;52.528;13.340;2022-11-20T10:30:14;1.90;94.60
16578;DHT22;8401;52.528;13.340;2022-11-20T10:32:52;1.90;90.60
16578;DHT22;8401;52.528;13.340;2022-11-20T10:35:40;2.00;93.10
16578;DHT22;8401;52.528;13.340;2022-11-20T10:38:17;2.10;90.50
16578;DHT22;8401;52.528;13.340;2022-11-20T10:40:47;2.10;89.50
16578;DHT22;8401;52.528;13.340;2022-11-20T10:43:33;2.30;68.00
16578;DHT22;8401;52.528;13.340;2022-11-20T10:46:05;2.30;74.10
16578;DHT22;8401;52.528;13.340;2022-11-20T10:48:32;2.70;66.80
16578;DHT22;8401;52.528;13.340;2022-11-20T10:51:30;2.80;56.60
16578;DHT22;8401;52.528;13.340;2022-11-20T10:56:48;2.60;52.70
16578;DHT22;8401;52.528;13.340;2022-11-20T11:01:53;2.70;56.60
16578;DHT22;8401;52.528;13.340;2022-11-20T11:07:06;3.00;38.70
16578;DHT22;8401;52.528;13.340;2022-11-20T11:09:38;2.90;29.50
16578;DHT22;8401;52.528;13.340;2022-11-20T11:12:11;3.00;27.70
16578;DHT22;8401;52.528;13.340;2022-11-20T11:14:46;3.10;26.40
16578;DHT22;8401;52.528;13.340;2022-11-20T11:17:32;3.00;1.00
16578;DHT22;8401;52.528;13.340;2022-11-20T11:22:33;3.00;1.00
16578;DHT22;8401;52.528;13.340;2022-11-20T11:24:59;2.90;1.00
16578;DHT22;8401;52.528;13.340;2022-11-20T11:27:25;3.10;1.00
16578;DHT22;8401;52.528;13.340;2022-11-20T11:30:02;2.90;1.00
16578;DHT22;8401;52.528;13.340;2022-11-20T11:32:36;2.70;1.00
16578;DHT22;8401;52.528;13.340;2022-11-20T11:35:11;2.70;1.00
16578;DHT22;8401;52.528;13.340;2022-11-20T11:37:44;2.80;1.00
16578;DHT22;8401;52.528;13.340;2022-11-20T11:40:11;2.60;1.00
16578;DHT22;8401;52.528;13.340;2022-11-20T11:43:16;2.50;1.00
16578;DHT22;8401;52.528;13.340;2022-11-20T11:45:55;2.30;1.00
16578;DHT22;8401;52.528;13.340;2022-11-20T11:48:21;2.20;1.00
16578;DHT22;8401;52.528;13.340;2022-11-20T11:50:50;2.20;1.00
16578;DHT22;8401;52.528;13.340;2022-11-20T11:53:22;2.10;1.00
16578;DHT22;8401;52.528;13.340;2022-11-20T11:55:58;2.00;18.30
16578;DHT22;8401;52.528;13.340;2022-11-20T12:01:31;1.90;37.00
16578;DHT22;8401;52.528;13.340;2022-11-20T12:04:21;1.90;46.80
16578;DHT22;8401;52.528;13.340;2022-11-20T12:07:00;1.90;41.60
16578;DHT22;8401;52.528;13.340;2022-11-20T12:09:38;2.00;46.40
16578;DHT22;8401;52.528;13.340;2022-11-20T12:12:23;2.00;33.90
16578;DHT22;8401;52.528;13.340;2022-11-20T12:14:52;2.00;26.30
16578;DHT22;8401;52.528;13.340;2022-11-20T12:17:20;2.10;38.40
16578;DHT22;8401;52.528;13.340;2022-11-20T12:19:45;2.10;25.60
16578;DHT22;8401;52.528;13.340;2022-11-20T12:25:11;2.20;2.80
16578;DHT22;8401;52.528;13.340;2022-11-20T12:30:33;2.30;1.00
16578;DHT22;8401;52.528;13.340;2022-11-20T12:36:26;2.40;1.00
16578;DHT22;8401;52.528;13.340;2022-11-20T12:39:05;2.60;1.00
16578;DHT22;8401;52.528;13.340;2022-11-20T12:41:57;2.60;1.00
16578;DHT22;8401;52.528;13.340;2022-11-20T12:45:14;2.70;1.00
16578;DHT22;8401;52.528;13.340;2022-11-20T12:47:49;2.70;1.00
16578;DHT22;8401;52.528;13.340;2022-11-20T12:50:36;2.70;1.00
16578;DHT22;8401;52.528;13.340;2022-11-20T12:53:05;2.60;1.00
16578;DHT22;8401;52.528;13.340;2022-11-20T13:01:03;2.40;1.00
16578;DHT22;8401;52.528;13.340;2022-11-20T13:03:43;2.50;1.00
16578;DHT22;8401;52.528;13.340;2022-11-20T13:06:17;2.50;1.00
16578;DHT22;8401;52.528;13.340;2022-11-20T13:08:54;2.40;1.00
16578;DHT22;8401;52.528;13.340;2022-11-20T13:14:26;2.30;1.00
16578;DHT22;8401;52.528;13.340;2022-11-20T13:19:30;2.20;1.00
16578;DHT22;8401;52.528;13.340;2022-11-20T13:21:56;2.20;1.00
16578;DHT22;8401;52.528;13.340;2022-11-20T13:24:27;2.30;1.10
16578;DHT22;8401;52.528;13.340;2022-11-20T13:29:34;2.40;1.00
16578;DHT22;8401;52.528;13.340;2022-11-20T13:34:32;2.40;1.00
16578;DHT22;8401;52.528;13.340;2022-11-20T13:36:59;2.40;1.00
16578;DHT22;8401;52.528;13.340;2022-11-20T13:39:36;2.30;1.00
16578;DHT22;8401;52.528;13.340;2022-11-20T13:42:26;2.20;1.30
16578;DHT22;8401;52.528;13.340;2022-11-20T13:45:02;2.10;1.00
16578;DHT22;8401;52.528;13.340;2022-11-20T13:47:35;2.10;7.60
16578;DHT22;8401;52.528;13.340;2022-11-20T13:50:03;2.10;17.70
16578;DHT22;8401;52.528;13.340;2022-11-20T14:01:33;2.10;22.50
16578;DHT22;8401;52.528;13.340;2022-11-20T14:04:01;2.00;25.20
16578;DHT22;8401;52.528;13.340;2022-11-20T14:06:38;1.90;27.80
16578;DHT22;8401;52.528;13.340;2022-11-20T14:09:04;1.90;30.50
16578;DHT22;8401;52.528;13.340;2022-11-20T14:11:31;2.00;30.40
16578;DHT22;8401;52.528;13.340;2022-11-20T14:14:15;2.00;31.00
16578;DHT22;8401;52.528;13.340;2022-11-20T14:16:41;2.00;34.90
16578;DHT22;8401;52.528;13.340;2022-11-20T14:22:06;2.00;23.50
16578;DHT22;8401;52.528;13.340;2022-11-20T14:24:32;1.90;35.90
16578;DHT22;8401;52.528;13.340;2022-11-20T14:26:57;1.80;42.80
16578;DHT22;8401;52.528;13.340;2022-11-20T14:29:37;1.80;43.20
16578;DHT22;8401;52.528;13.340;2022-11-20T14:32:04;1.80;55.00
16578;DHT22;8401;52.528;13.340;2022-11-20T14:34:32;1.80;50.40
16578;DHT22;8401;52.528;13.340;2022-11-20T14:37:03;1.70;44.20
16578;DHT22;8401;52.528;13.340;2022-11-20T14:39:32;1.70;42.10
16578;DHT22;8401;52.528;13.340;2022-11-20T14:41:59;1.60;55.30
16578;DHT22;8401;52.528;13.340;2022-11-20T14:44:33;1.70;60.70
16578;DHT22;8401;52.528;13.340;2022-11-20T14:47:03;1.70;49.00
16578;DHT22;8401;52.528;13.340;2022-11-20T14:49:30;1.70;43.10
16578;DHT22;8401;52.528;13.340;2022-11-20T14:52:15;1.70;41.80
16578;DHT22;8401;52.528;13.340;2022-11-20T14:54:57;1.80;35.50
16578;DHT22;8401;52.528;13.340;2022-11-20T14:57:27;1.80;31.80
16578;DHT22;8401;52.528;13.340;2022-11-20T15:02:45;1.60;30.70
16578;DHT22;8401;52.528;13.340;2022-11-20T15:05:12;1.60;45.10
16578;DHT22;8401;52.528;13.340;2022-11-20T15:07:40;1.60;43.90
16578;DHT22;8401;52.528;13.340;2022-11-20T15:10:30;1.70;46.90
16578;DHT22;8401;52.528;13.340;2022-11-20T15:13:01;1.70;33.80
16578;DHT22;8401;52.528;13.340;2022-11-20T15:15:39;1.60;39.00
16578;DHT22;8401;52.528;13.340;2022-11-20T15:18:14;1.70;42.30
16578;DHT22;8401;52.528;13.340;2022-11-20T15:20:42;1.70;44.80
16578;DHT22;8401;52.528;13.340;2022-11-20T15:23:12;1.70;42.80
16578;DHT22;8401;52.528;13.340;2022-11-20T15:25:39;1.70;34.10
16578;DHT22;8401;52.528;13.340;2022-11-20T15:28:19;1.60;35.40
16578;DHT22;8401;52.528;13.340;2022-11-20T15:30:47;1.60;34.80
16578;DHT22;8401;52.528;13.340;2022-11-20T15:33:14;1.70;38.60
16578;DHT22;8401;52.528;13.340;2022-11-20T15:35:40;1.70;31.90
16578;DHT22;8401;52.528;13.340;2022-11-20T15:38:05;1.70;38.60
16578;DHT22;8401;52.528;13.340;2022-11-20T15:40:31;1.70;42.70
16578;DHT22;8401;52.528;13.340;2022-11-20T15:42:57;1.70;38.40
16578;DHT22;8401;52.528;13.340;2022-11-20T15:45:31;1.70;47.40
16578;DHT22;8401;52.528;13.340;2022-11-20T15:47:58;1.70;40.60
16578;DHT22;8401;52.528;13.340;2022-11-20T15:50:27;1.70;42.20
16578;DHT22;8401;52.528;13.340;2022-11-20T15:52:54;1.70;45.90
16578;DHT22;8401;52.528;13.340;2022-11-20T15:55:20;1.80;43.20
16578;DHT22;8401;52.528;13.340;2022-11-20T15:57:45;1.70;43.40
16578;DHT22;8401;52.528;13.340;2022-11-20T16:00:11;1.80;40.40
16578;DHT22;8401;52.528;13.340;2022-11-20T16:02:37;1.70;21.00
16578;DHT22;8401;52.528;13.340;2022-11-20T16:05:04;1.60;24.60
16578;DHT22;8401;52.528;13.340;2022-11-20T16:07:29;1.60;30.90
16578;DHT22;8401;52.528;13.340;2022-11-20T16:09:55;1.50;30.00
16578;DHT22;8401;52.528;13.340;2022-11-20T16:12:21;1.50;38.00
16578;DHT22;8401;52.528;13.340;2022-11-20T16:15:08;1.40;39.20
16578;DHT22;8401;52.528;13.340;2022-11-20T16:17:52;1.40;46.40
16578;DHT22;8401;52.528;13.340;2022-11-20T16:20:18;1.30;54.20
16578;DHT22;8401;52.528;13.340;2022-11-20T16:22:43;1.40;51.20
16578;DHT22;8401;52.528;13.340;2022-11-20T16:25:09;1.40;42.20
16578;DHT22;8401;52.528;13.340;2022-11-20T16:27:34;1.40;42.50
16578;DHT22;8401;52.528;13.340;2022-11-20T16:30:00;1.30;41.60
16578;DHT22;8401;52.528;13.340;2022-11-20T16:32:26;1.30;37.90
16578;DHT22;8401;52.528;13.340;2022-11-20T16:34:51;1.30;34.50
16578;DHT22;8401;52.528;13.340;2022-11-20T16:37:17;1.30;38.90
16578;DHT22;8401;52.528;13.340;2022-11-20T16:39:42;1.30;25.90
16578;DHT22;8401;52.528;13.340;2022-11-20T16:42:08;1.30;29.50
16578;DHT22;8401;52.528;13.340;2022-11-20T16:44:33;1.30;33.90
16578;DHT22;8401;52.528;13.340;2022-11-20T16:47:00;1.30;26.60
16578;DHT22;8401;52.528;13.340;2022-11-20T16:49:25;1.30;27.90
16578;DHT22;8401;52.528;13.340;2022-11-20T16:51:51;1.20;24.40
16578;DHT22;8401;52.528;13.340;2022-11-20T16:54:16;1.20;25.00
16578;DHT22;8401;52.528;13.340;2022-11-20T16:56:42;1.20;29.90
16578;DHT22;8401;52.528;13.340;2022-11-20T16:59:08;1.20;33.20
16578;DHT22;8401;52.528;13.340;2022-11-20T17:01:33;1.30;24.60
16578;DHT22;8401;52.528;13.340;2022-11-20T17:04:04;1.30;24.00
16578;DHT22;8401;52.528;13.340;2022-11-20T17:06:38;1.20;24.00
16578;DHT22;8401;52.528;13.340;2022-11-20T17:09:05;1.30;19.90
16578;DHT22;8401;52.528;13.340;2022-11-20T17:11:34;1.20;18.60
16578;DHT22;8401;52.528;13.340;2022-11-20T17:14:00;1.20;10.60
16578;DHT22;8401;52.528;13.340;2022-11-20T17:16:32;1.20;9.00
16578;DHT22;8401;52.528;13.340;2022-11-20T17:18:59;1.20;11.10
16578;DHT22;8401;52.528;13.340;2022-11-20T17:21:25;1.30;12.70
16578;DHT22;8401;52.528;13.340;2022-11-20T17:23:51;1.30;11.50